Time;durP1;ratioP1;P1;durP2;ratioP2;P2;SDS_P1;SDS_P2;PMS_P1;PMS_P2;Temp;Humidity;BMP_temperature;BMP_pressure;BME280_temperature;BME280_humidity;BME280_pressure;Samples;Min_cycle;Max_cycle;Signal;HPM_P1;HPM_P2
2021/10/05 00:00:11;;;;;;;0.40;0.20;;;12.00;99.90;;;;;;4991330;28;20462;-75
2021/10/05 00:02:36;;;;;;;0.40;0.20;;;12.10;99.90;;;;;;4992254;28;20414;-75
2021/10/05 00:05:04;;;;;;;0.45;0.38;;;12.10;99.90;;;;;;4991428;28;20427;-75
2021/10/05 00:07:29;;;;;;;0.40;0.20;;;12.00;99.90;;;;;;4991820;28;20439;-75
2021/10/05 00:09:55;;;;;;;0.40;0.20;;;12.20;99.90;;;;;;4973532;28;20473;-75
2021/10/05 00:12:21;;;;;;;0.70;0.70;;;12.10;99.90;;;;;;4992481;28;20449;-76
2021/10/05 00:14:46;;;;;;;0.40;0.32;;;12.00;99.90;;;;;;4991691;28;20399;-76
2021/10/05 00:17:12;;;;;;;0.70;0.70;;;12.00;99.90;;;;;;4973746;28;20397;-76
2021/10/05 00:19:38;;;;;;;0.40;0.30;;;12.10;99.90;;;;;;4992016;28;20387;-75
2021/10/05 00:22:04;;;;;;;0.50;0.50;;;12.30;99.90;;;;;;4973520;28;20398;-76
2021/10/05 00:24:30;;;;;;;0.40;0.20;;;12.30;99.90;;;;;;4991619;28;20389;-75
2021/10/05 00:26:55;;;;;;;0.40;0.30;;;12.00;99.90;;;;;;4990885;28;20414;-76
2021/10/05 00:29:21;;;;;;;0.40;0.20;;;12.00;99.90;;;;;;4974024;28;20394;-75
2021/10/05 00:31:47;;;;;;;0.40;0.20;;;12.10;99.90;;;;;;4991600;28;20456;-75
2021/10/05 00:34:12;;;;;;;0.50;0.40;;;12.00;99.90;;;;;;4990959;28;20394;-75
2021/10/05 00:36:38;;;;;;;0.40;0.20;;;12.40;99.90;;;;;;4991861;28;20386;-75
2021/10/05 00:39:04;;;;;;;0.40;0.20;;;12.00;99.90;;;;;;4990899;28;20385;-76
2021/10/05 00:41:29;;;;;;;0.40;0.20;;;12.00;99.90;;;;;;4991818;28;20863;-75
2021/10/05 00:44:00;;;;;;;0.40;0.30;;;12.20;99.90;;;;;;4990931;28;20402;-77
2021/10/05 00:46:26;;;;;;;1.00;1.00;;;12.10;99.90;;;;;;4974295;28;20403;-75
2021/10/05 00:48:53;;;;;;;0.40;0.20;;;12.10;99.90;;;;;;4971964;28;20395;-77
2021/10/05 00:51:21;;;;;;;1.90;1.30;;;11.90;99.90;;;;;;4971924;28;20384;-75
2021/10/05 00:53:47;;;;;;;0.70;0.60;;;12.20;99.90;;;;;;4954770;28;20885;-75
2021/10/05 00:56:12;;;;;;;0.80;0.80;;;12.10;99.90;;;;;;4971357;28;20408;-75
2021/10/05 00:58:39;;;;;;;0.40;0.20;;;12.00;99.90;;;;;;4972215;28;20392;-75
2021/10/05 01:01:04;;;;;;;0.40;0.20;;;11.90;99.90;;;;;;4971331;28;20480;-75
2021/10/05 01:03:30;;;;;;;0.40;0.20;;;12.00;99.90;;;;;;4972119;28;20836;-75
2021/10/05 01:05:56;;;;;;;0.40;0.20;;;12.00;99.90;;;;;;4971158;28;20483;-76
2021/10/05 01:08:22;;;;;;;0.40;0.20;;;12.00;99.90;;;;;;4971877;28;20431;-75
2021/10/05 01:10:48;;;;;;;0.40;0.20;;;12.00;99.90;;;;;;4972102;28;20873;-75
2021/10/05 01:13:14;;;;;;;0.40;0.20;;;12.40;99.90;;;;;;4971163;28;20473;-75
2021/10/05 01:15:40;;;;;;;0.60;0.60;;;12.00;99.90;;;;;;4971350;28;20943;-75
2021/10/05 01:18:06;;;;;;;0.40;0.40;;;12.10;99.90;;;;;;4971160;28;20936;-75
2021/10/05 01:20:51;;;;;;;1.00;0.90;;;12.00;99.90;;;;;;4954727;28;20401;-75
2021/10/05 01:23:17;;;;;;;1.30;1.20;;;12.10;99.90;;;;;;4971521;28;20829;-74
2021/10/05 01:25:43;;;;;;;0.70;0.70;;;12.20;99.90;;;;;;4972292;28;20408;-75
2021/10/05 01:28:08;;;;;;;0.40;0.40;;;11.90;99.90;;;;;;4971792;28;20480;-74
2021/10/05 01:30:34;;;;;;;0.40;0.20;;;12.00;99.90;;;;;;4972236;28;20380;-73
2021/10/05 01:33:00;;;;;;;0.40;0.20;;;12.30;99.90;;;;;;4971596;28;20407;-74
2021/10/05 01:35:25;;;;;;;0.90;0.90;;;11.90;99.90;;;;;;4972271;28;20434;-74
2021/10/05 01:37:51;;;;;;;0.60;0.60;;;12.00;99.90;;;;;;4972228;28;20385;-73
2021/10/05 01:40:16;;;;;;;0.40;0.20;;;12.10;99.90;;;;;;4971647;28;20471;-73
2021/10/05 01:42:42;;;;;;;0.40;0.20;;;12.10;99.90;;;;;;4972337;28;20412;-73
2021/10/05 01:45:08;;;;;;;0.70;0.70;;;12.30;99.90;;;;;;4963295;28;20410;-73
2021/10/05 01:47:34;;;;;;;0.50;0.50;;;12.10;99.90;;;;;;4995197;28;20394;-73
2021/10/05 01:50:00;;;;;;;0.40;0.30;;;12.10;99.90;;;;;;4994022;28;20893;-74
2021/10/05 01:52:25;;;;;;;0.40;0.20;;;12.20;99.90;;;;;;4994693;28;20393;-73
2021/10/05 01:54:51;;;;;;;0.40;0.40;;;12.00;99.90;;;;;;4994729;28;20397;-73
2021/10/05 01:57:17;;;;;;;0.40;0.25;;;12.00;99.90;;;;;;4993923;28;20440;-73
2021/10/05 01:59:42;;;;;;;4.80;1.30;;;12.10;99.90;;;;;;4976877;28;20426;-73
2021/10/05 02:02:08;;;;;;;0.40;0.20;;;12.30;99.90;;;;;;4993487;28;20391;-73
2021/10/05 02:04:34;;;;;;;0.40;0.20;;;12.20;99.90;;;;;;4994510;28;20461;-73
2021/10/05 02:07:00;;;;;;;0.50;0.50;;;12.00;99.90;;;;;;4993995;28;20383;-75
2021/10/05 02:09:25;;;;;;;0.40;0.30;;;12.00;99.90;;;;;;4994073;28;20425;-73
2021/10/05 02:11:51;;;;;;;0.40;0.30;;;12.10;99.90;;;;;;4994313;28;20490;-73
2021/10/05 02:14:16;;;;;;;0.40;0.20;;;12.10;99.90;;;;;;4993504;28;20883;-72
2021/10/05 02:16:42;;;;;;;2.30;0.90;;;12.00;99.90;;;;;;4993965;28;20401;-72
2021/10/05 02:19:09;;;;;;;0.70;0.70;;;12.00;99.90;;;;;;4993369;28;20379;-73
2021/10/05 02:21:35;;;;;;;0.40;0.30;;;12.00;99.90;;;;;;4994294;28;20394;-73
2021/10/05 02:26:56;;;;;;;0.50;0.50;;;11.80;99.90;;;;;;4977847;28;20947;-72
2021/10/05 02:29:22;;;;;;;0.50;0.50;;;11.70;99.90;;;;;;4975848;28;20903;-72
2021/10/05 02:31:49;;;;;;;0.40;0.20;;;12.10;99.90;;;;;;4993465;28;20390;-72
2021/10/05 02:34:15;;;;;;;0.80;0.70;;;11.60;99.90;;;;;;4993049;28;20422;-72
2021/10/05 02:36:42;;;;;;;0.40;0.30;;;11.60;99.90;;;;;;4993976;28;20401;-72
2021/10/05 02:39:08;;;;;;;0.40;0.20;;;11.50;99.90;;;;;;4992989;28;20383;-73
2021/10/05 02:41:34;;;;;;;0.40;0.30;;;11.60;99.90;;;;;;4993849;28;20375;-72
2021/10/05 02:44:00;;;;;;;0.40;0.20;;;11.70;99.90;;;;;;4993479;28;20775;-74
2021/10/05 02:46:25;;;;;;;0.40;0.30;;;12.20;99.90;;;;;;4975832;28;20392;-72
2021/10/05 02:48:51;;;;;;;0.40;0.30;;;11.60;99.90;;;;;;4974024;28;20899;-73
2021/10/05 02:51:16;;;;;;;0.40;0.20;;;11.60;99.90;;;;;;4973365;28;20465;-73
2021/10/05 02:53:42;;;;;;;0.40;0.30;;;11.50;99.90;;;;;;4974106;28;20396;-73
2021/10/05 02:56:08;;;;;;;0.40;0.20;;;11.60;99.90;;;;;;4973170;28;20495;-73
2021/10/05 02:58:33;;;;;;;0.40;0.30;;;11.50;99.90;;;;;;4973807;28;20399;-72
2021/10/05 03:00:59;;;;;;;0.40;0.30;;;11.70;99.90;;;;;;4974162;28;20475;-73
2021/10/05 03:03:25;;;;;;;0.40;0.20;;;11.90;99.90;;;;;;4972603;28;20495;-72
2021/10/05 03:05:50;;;;;;;0.40;0.20;;;12.10;99.90;;;;;;4973899;28;20451;-73
2021/10/05 03:08:16;;;;;;;0.40;0.20;;;11.80;99.90;;;;;;4973099;28;20403;-73
2021/10/05 03:10:42;;;;;;;0.40;0.30;;;11.60;99.90;;;;;;4973554;28;20442;-72
2021/10/05 03:13:07;;;;;;;0.40;0.30;;;11.60;99.90;;;;;;4972941;28;20483;-73
2021/10/05 03:15:33;;;;;;;1.00;0.60;;;11.60;99.90;;;;;;4973808;28;20919;-73
2021/10/05 03:17:59;;;;;;;0.40;0.20;;;11.50;99.90;;;;;;4973519;28;20393;-72
2021/10/05 03:20:25;;;;;;;0.40;0.30;;;11.60;99.90;;;;;;4972283;28;20388;-73
2021/10/05 03:22:50;;;;;;;1.20;0.90;;;11.70;99.90;;;;;;4973021;28;20435;-73
2021/10/05 03:25:16;;;;;;;0.40;0.20;;;11.80;99.90;;;;;;4972131;28;20415;-73
2021/10/05 03:27:41;;;;;;;0.40;0.30;;;11.70;99.90;;;;;;4973266;28;20408;-73
2021/10/05 03:30:09;;;;;;;0.40;0.20;;;11.70;99.90;;;;;;4972674;28;20399;-73
2021/10/05 03:32:35;;;;;;;0.40;0.30;;;11.70;99.90;;;;;;4973198;28;21020;-73
2021/10/05 03:35:01;;;;;;;1.40;0.80;;;11.70;99.90;;;;;;4973160;28;20385;-73
2021/10/05 03:37:27;;;;;;;0.40;0.30;;;12.00;99.90;;;;;;4972495;28;20388;-73
2021/10/05 03:39:53;;;;;;;0.40;0.30;;;11.70;99.90;;;;;;4973333;28;20407;-73
2021/10/05 03:42:18;;;;;;;0.40;0.30;;;11.60;99.90;;;;;;4972004;28;20424;-73
2021/10/05 03:44:44;;;;;;;0.40;0.30;;;11.90;99.90;;;;;;4959374;28;20395;-72
2021/10/05 03:47:10;;;;;;;0.40;0.30;;;11.70;99.90;;;;;;4992058;28;20407;-73
2021/10/05 03:49:37;;;;;;;0.40;0.30;;;11.70;99.90;;;;;;4975363;28;20391;-73
2021/10/05 03:52:03;;;;;;;0.40;0.20;;;11.70;99.90;;;;;;4992570;28;20453;-73
2021/10/05 03:54:28;;;;;;;2.88;0.95;;;12.20;99.90;;;;;;4974177;28;20398;-73
2021/10/05 03:56:54;;;;;;;0.40;0.20;;;11.70;99.90;;;;;;4992603;28;20400;-73
2021/10/05 03:59:20;;;;;;;0.40;0.20;;;11.70;99.90;;;;;;4991580;28;20379;-73
2021/10/05 04:01:46;;;;;;;2.60;0.70;;;12.00;99.90;;;;;;4992300;28;20422;-73
2021/10/05 04:04:13;;;;;;;0.40;0.40;;;11.50;99.90;;;;;;4991479;28;20877;-73
2021/10/05 04:06:40;;;;;;;0.40;0.20;;;11.80;99.90;;;;;;4991756;28;20382;-73
2021/10/05 04:09:06;;;;;;;0.53;0.40;;;11.90;99.90;;;;;;4988465;28;20401;-74
2021/10/05 04:11:33;;;;;;;0.40;0.30;;;11.70;99.90;;;;;;4991744;28;20894;-72
2021/10/05 04:13:59;;;;;;;0.40;0.20;;;11.80;99.90;;;;;;4992028;28;20863;-72
2021/10/05 04:16:25;;;;;;;0.40;0.20;;;11.80;99.90;;;;;;4991034;28;20474;-73
2021/10/05 04:18:50;;;;;;;0.40;0.38;;;11.70;99.90;;;;;;4991903;28;20397;-73
2021/10/05 04:21:16;;;;;;;0.40;0.20;;;11.70;99.90;;;;;;4990854;28;20379;-73
2021/10/05 04:23:42;;;;;;;0.40;0.30;;;11.70;99.90;;;;;;4991612;28;20928;-72
2021/10/05 04:26:07;;;;;;;0.40;0.20;;;11.60;99.90;;;;;;4991891;28;20485;-74
2021/10/05 04:28:33;;;;;;;0.40;0.30;;;11.80;99.90;;;;;;4991988;28;20739;-73
2021/10/05 04:30:59;;;;;;;0.40;0.30;;;11.80;99.90;;;;;;4991787;28;20390;-72
2021/10/05 04:33:25;;;;;;;0.40;0.20;;;11.90;99.90;;;;;;4990895;28;20386;-72
2021/10/05 04:35:50;;;;;;;0.60;0.50;;;11.80;99.90;;;;;;4991790;28;20391;-73
2021/10/05 04:38:16;;;;;;;0.40;0.30;;;11.50;99.90;;;;;;4991043;28;20851;-73
2021/10/05 04:40:42;;;;;;;0.40;0.30;;;11.80;99.90;;;;;;4991816;28;20735;-73
2021/10/05 04:43:08;;;;;;;0.40;0.30;;;11.70;99.90;;;;;;4990951;28;20411;-74
2021/10/05 04:45:34;;;;;;;0.40;0.30;;;12.20;99.90;;;;;;4980777;28;20535;-72
2021/10/05 04:48:03;;;;;;;0.40;0.30;;;11.60;99.90;;;;;;4972291;28;20380;-73
2021/10/05 04:50:29;;;;;;;0.40;0.20;;;11.80;99.90;;;;;;4971334;28;20380;-73
2021/10/05 04:52:54;;;;;;;0.40;0.23;;;12.00;99.90;;;;;;4972166;28;20443;-73
2021/10/05 04:55:20;;;;;;;0.40;0.30;;;11.80;99.90;;;;;;4971453;28;20952;-73
2021/10/05 04:57:46;;;;;;;0.40;0.30;;;11.80;99.90;;;;;;4972318;28;20470;-73
2021/10/05 05:00:12;;;;;;;0.40;0.30;;;11.80;99.90;;;;;;4971318;28;20431;-74
2021/10/05 05:02:38;;;;;;;0.40;0.30;;;11.80;99.90;;;;;;4971463;28;20447;-72
2021/10/05 05:05:06;;;;;;;0.40;0.25;;;12.40;99.90;;;;;;4972408;28;20467;-73
2021/10/05 05:07:33;;;;;;;0.40;0.30;;;11.90;99.90;;;;;;4967991;28;20419;-73
2021/10/05 05:09:59;;;;;;;0.40;0.20;;;12.30;99.90;;;;;;4971953;28;20388;-73
2021/10/05 05:12:25;;;;;;;0.40;0.30;;;11.80;99.90;;;;;;4971047;28;20503;-73
2021/10/05 05:14:51;;;;;;;0.40;0.20;;;12.00;99.90;;;;;;4972114;28;20459;-72
2021/10/05 05:17:16;;;;;;;0.40;0.23;;;11.80;99.90;;;;;;4971105;28;20484;-73
2021/10/05 05:19:42;;;;;;;0.40;0.30;;;11.90;99.90;;;;;;4974172;28;20857;-72
2021/10/05 05:22:08;;;;;;;0.40;0.30;;;11.90;99.90;;;;;;4958314;28;20400;-73
2021/10/05 05:24:33;;;;;;;0.40;0.20;;;11.90;99.90;;;;;;4974853;28;20709;-73
2021/10/05 05:26:59;;;;;;;0.40;0.30;;;12.20;99.90;;;;;;4975278;28;20490;-74
2021/10/05 05:29:25;;;;;;;0.40;0.20;;;11.80;99.90;;;;;;4974693;28;20399;-73
2021/10/05 05:31:52;;;;;;;0.40;0.30;;;11.80;99.90;;;;;;4958236;28;20388;-73
2021/10/05 05:34:19;;;;;;;0.40;0.30;;;11.80;99.90;;;;;;4974892;28;20544;-73
2021/10/05 05:36:45;;;;;;;0.40;0.40;;;11.90;99.90;;;;;;4975503;28;20414;-73
2021/10/05 05:39:10;;;;;;;0.40;0.30;;;11.80;99.90;;;;;;4957971;28;20392;-75
2021/10/05 05:41:36;;;;;;;2.30;0.80;;;11.80;99.90;;;;;;4957404;28;20396;-73
2021/10/05 05:44:01;;;;;;;0.40;0.30;;;11.90;99.90;;;;;;4975317;28;20427;-73
2021/10/05 05:46:27;;;;;;;0.40;0.20;;;12.20;99.90;;;;;;4991481;28;20398;-73
2021/10/05 05:48:53;;;;;;;0.40;0.40;;;11.80;99.90;;;;;;4994890;28;20421;-73
2021/10/05 05:51:18;;;;;;;0.40;0.30;;;12.20;99.90;;;;;;4994528;28;20395;-73
2021/10/05 05:53:45;;;;;;;0.40;0.30;;;11.80;99.90;;;;;;4994911;28;20477;-73
2021/10/05 05:56:11;;;;;;;0.40;0.20;;;12.10;99.90;;;;;;4994662;28;20406;-75
2021/10/05 05:58:36;;;;;;;0.40;0.30;;;11.90;99.90;;;;;;4994766;28;20475;-73
2021/10/05 06:01:02;;;;;;;0.40;0.40;;;11.70;99.90;;;;;;4994890;28;20483;-73
2021/10/05 06:03:28;;;;;;;0.40;0.30;;;11.80;99.90;;;;;;4994331;28;20468;-74
2021/10/05 06:05:53;;;;;;;0.40;0.20;;;11.90;99.90;;;;;;4994846;28;20378;-74
2021/10/05 06:08:19;;;;;;;0.40;0.20;;;12.20;99.90;;;;;;4994025;28;20478;-74
2021/10/05 06:10:45;;;;;;;0.40;0.30;;;11.90;99.90;;;;;;4994765;28;20391;-74
2021/10/05 06:13:11;;;;;;;0.40;0.30;;;11.90;99.90;;;;;;4994805;28;20394;-73
2021/10/05 06:15:37;;;;;;;0.40;0.20;;;11.80;99.90;;;;;;4994407;28;20382;-73
2021/10/05 06:18:03;;;;;;;0.40;0.30;;;11.90;99.90;;;;;;4994604;28;20391;-73
2021/10/05 06:20:29;;;;;;;0.40;0.30;;;11.90;99.90;;;;;;4993738;28;20394;-73
2021/10/05 06:22:55;;;;;;;0.40;0.20;;;12.00;99.90;;;;;;4994485;28;20920;-73
2021/10/05 06:25:25;;;;;;;0.50;0.40;;;12.00;99.90;;;;;;4993834;28;20395;-73
2021/10/05 06:27:52;;;;;;;0.40;0.30;;;12.10;99.90;;;;;;4994311;28;20417;-73
2021/10/05 06:30:18;;;;;;;0.40;0.30;;;12.10;99.90;;;;;;4993215;28;20409;-74
2021/10/05 06:32:46;;;;;;;0.40;0.30;;;12.10;99.90;;;;;;4994079;28;21006;-73
2021/10/05 06:35:12;;;;;;;0.40;0.30;;;12.00;99.90;;;;;;4994398;28;20422;-73
2021/10/05 06:37:38;;;;;;;0.40;0.20;;;11.40;99.90;;;;;;4994336;28;20470;-74
2021/10/05 06:40:06;;;;;;;0.40;0.30;;;12.10;99.90;;;;;;4992225;28;20529;-71
2021/10/05 06:42:35;;;;;;;0.40;0.20;;;12.00;99.90;;;;;;4985796;28;20422;-73
2021/10/05 06:45:03;;;;;;;0.40;0.35;;;12.20;99.90;;;;;;4994425;28;20394;-73
2021/10/05 06:47:29;;;;;;;0.40;0.30;;;12.30;99.90;;;;;;4990832;28;20395;-73
2021/10/05 06:49:55;;;;;;;0.40;0.30;;;12.30;99.90;;;;;;4986463;28;20403;-73
2021/10/05 06:52:20;;;;;;;0.40;0.20;;;12.20;99.90;;;;;;4984839;28;20383;-73
2021/10/05 06:54:46;;;;;;;0.40;0.20;;;12.10;99.90;;;;;;4987348;28;20427;-75
2021/10/05 06:57:11;;;;;;;0.40;0.30;;;12.10;99.90;;;;;;4985608;28;20398;-75
2021/10/05 06:59:37;;;;;;;0.80;0.50;;;12.10;99.90;;;;;;4989517;28;20386;-73
2021/10/05 07:02:03;;;;;;;0.40;0.30;;;12.30;99.90;;;;;;4993108;28;20398;-73
2021/10/05 07:04:28;;;;;;;0.40;0.20;;;12.10;99.90;;;;;;4987827;28;20501;-76
2021/10/05 07:06:54;;;;;;;0.40;0.30;;;12.10;99.90;;;;;;4982558;28;20392;-75
2021/10/05 07:09:20;;;;;;;0.40;0.20;;;12.10;99.90;;;;;;4973482;28;20467;-75
2021/10/05 07:11:47;;;;;;;0.40;0.20;;;12.20;99.90;;;;;;4973958;28;20469;-75
2021/10/05 07:14:13;;;;;;;0.47;0.43;;;12.30;99.90;;;;;;4974259;28;20439;-75
2021/10/05 07:16:38;;;;;;;0.40;0.20;;;12.30;99.90;;;;;;4974189;28;20377;-75
2021/10/05 07:19:04;;;;;;;0.40;0.20;;;12.30;99.90;;;;;;4974176;28;20395;-75
2021/10/05 07:21:30;;;;;;;0.40;0.20;;;12.30;99.90;;;;;;4973475;28;20400;-75
2021/10/05 07:23:55;;;;;;;0.40;0.20;;;12.30;99.90;;;;;;4973726;28;20459;-76
2021/10/05 07:26:21;;;;;;;0.40;0.30;;;12.50;99.90;;;;;;4973505;28;20399;-76
2021/10/05 07:28:47;;;;;;;0.40;0.30;;;12.80;99.90;;;;;;4973431;28;20498;-75
2021/10/05 07:31:13;;;;;;;0.40;0.20;;;12.40;99.90;;;;;;4974176;28;20380;-76
2021/10/05 07:33:39;;;;;;;0.40;0.20;;;12.40;99.90;;;;;;4973176;28;20415;-76
2021/10/05 07:36:04;;;;;;;0.40;0.30;;;12.70;99.90;;;;;;4973628;28;20899;-76
2021/10/05 07:38:30;;;;;;;0.40;0.20;;;12.30;99.90;;;;;;4972899;28;20742;-74
2021/10/05 07:40:56;;;;;;;0.40;0.20;;;12.60;99.90;;;;;;4973136;28;20404;-74
2021/10/05 07:43:22;;;;;;;0.40;0.20;;;12.20;99.90;;;;;;4972471;28;20421;-74
2021/10/05 07:45:48;;;;;;;0.40;0.40;;;12.50;99.90;;;;;;4973685;28;20403;-74
2021/10/05 07:48:14;;;;;;;0.40;0.20;;;12.50;99.90;;;;;;4973560;28;20848;-74
2021/10/05 07:50:40;;;;;;;0.50;0.40;;;12.70;99.90;;;;;;4972681;28;20411;-74
2021/10/05 07:53:06;;;;;;;0.40;0.20;;;12.60;99.90;;;;;;4973334;28;20388;-74
2021/10/05 07:55:32;;;;;;;0.40;0.30;;;12.50;99.90;;;;;;4955583;28;20403;-74
2021/10/05 07:57:59;;;;;;;0.40;0.20;;;13.50;99.90;;;;;;4973302;28;20396;-74
2021/10/05 08:00:25;;;;;;;1.70;0.90;;;12.60;99.90;;;;;;4972719;28;20463;-75
2021/10/05 08:02:51;;;;;;;0.40;0.20;;;12.50;99.90;;;;;;4973191;28;20411;-74
2021/10/05 08:05:17;;;;;;;0.40;0.20;;;12.60;99.90;;;;;;4973030;28;20400;-76
2021/10/05 08:07:44;;;;;;;0.40;0.20;;;12.50;99.90;;;;;;4973038;28;20467;-75
2021/10/05 08:10:10;;;;;;;0.40;0.22;;;12.60;99.90;;;;;;4973060;28;20395;-74
2021/10/05 08:12:36;;;;;;;0.40;0.20;;;12.60;99.90;;;;;;4972373;28;20466;-76
2021/10/05 08:15:03;;;;;;;0.40;0.20;;;12.60;99.90;;;;;;4973154;28;20396;-74
2021/10/05 08:17:29;;;;;;;0.40;0.20;;;12.60;99.90;;;;;;4972331;28;20393;-76
2021/10/05 08:19:55;;;;;;;0.60;0.50;;;12.60;99.90;;;;;;4973092;28;20395;-77
2021/10/05 08:22:21;;;;;;;0.40;0.20;;;12.60;99.90;;;;;;4972273;28;20389;-75
2021/10/05 08:24:47;;;;;;;0.40;0.20;;;12.70;99.90;;;;;;4955605;28;20900;-75
2021/10/05 08:27:13;;;;;;;0.40;0.20;;;12.90;99.90;;;;;;4955454;28;20448;-75
2021/10/05 08:29:42;;;;;;;0.40;0.30;;;12.60;99.90;;;;;;4972166;28;20396;-75
2021/10/05 08:32:08;;;;;;;0.40;0.30;;;13.00;99.90;;;;;;4972830;28;20424;-76
2021/10/05 08:34:35;;;;;;;0.40;0.20;;;12.90;99.90;;;;;;4954895;28;20503;-75
2021/10/05 08:37:00;;;;;;;0.40;0.20;;;12.80;99.90;;;;;;4972802;28;20389;-75
2021/10/05 08:39:26;;;;;;;0.40;0.20;;;12.80;99.90;;;;;;4972079;28;20443;-75
2021/10/05 08:41:52;;;;;;;0.40;0.20;;;13.00;99.90;;;;;;4955368;28;20389;-75
2021/10/05 08:44:18;;;;;;;0.40;0.20;;;12.90;99.90;;;;;;4972575;28;20416;-75
2021/10/05 08:46:44;;;;;;;0.40;0.20;;;13.00;99.90;;;;;;4991695;28;20429;-75
2021/10/05 08:49:10;;;;;;;0.40;0.20;;;13.10;99.90;;;;;;4991896;28;20382;-75
2021/10/05 08:51:37;;;;;;;0.40;0.40;;;13.20;99.90;;;;;;4991406;28;20398;-75
2021/10/05 08:54:04;;;;;;;0.40;0.20;;;13.20;99.90;;;;;;4991634;28;20382;-75
2021/10/05 08:56:30;;;;;;;0.40;0.20;;;13.30;99.90;;;;;;4990923;28;20417;-74
2021/10/05 08:58:55;;;;;;;0.40;0.30;;;13.40;99.90;;;;;;4991569;28;20387;-75
2021/10/05 09:01:21;;;;;;;0.40;0.20;;;13.60;99.90;;;;;;4991276;28;20396;-76
2021/10/05 09:03:50;;;;;;;0.40;0.20;;;13.60;99.90;;;;;;4991809;28;20929;-75
2021/10/05 09:06:17;;;;;;;0.40;0.30;;;14.10;99.90;;;;;;4991540;28;20874;-75
2021/10/05 09:08:44;;;;;;;0.40;0.20;;;13.60;99.90;;;;;;4991243;28;20386;-75
2021/10/05 09:11:11;;;;;;;0.40;0.20;;;13.70;99.90;;;;;;4991926;28;20445;-75
2021/10/05 09:13:40;;;;;;;0.40;0.20;;;13.70;99.90;;;;;;4990951;28;20752;-75
2021/10/05 09:16:30;;;;;;;0.40;0.20;;;13.60;99.90;;;;;;4991768;28;20390;-75
2021/10/05 09:18:58;;;;;;;0.40;0.20;;;13.60;99.90;;;;;;4990415;28;20396;-75
2021/10/05 09:21:26;;;;;;;0.40;0.20;;;13.60;99.90;;;;;;4991066;28;20962;-75
2021/10/05 09:23:57;;;;;;;0.40;0.30;;;13.80;99.90;;;;;;4991486;28;20492;-75
2021/10/05 09:26:43;;;;;;;0.40;0.30;;;13.80;99.90;;;;;;4990800;28;20390;-75
2021/10/05 09:29:11;;;;;;;0.40;0.20;;;13.90;99.90;;;;;;4991668;28;20410;-76
2021/10/05 09:31:56;;;;;;;0.40;0.20;;;13.80;99.90;;;;;;4990991;28;20395;-75
2021/10/05 09:34:54;;;;;;;0.40;0.40;;;13.90;99.90;;;;;;4990779;28;21025;-78
2021/10/05 09:37:34;;;;;;;0.40;0.20;;;13.90;99.90;;;;;;4991601;28;20387;-75
2021/10/05 09:40:06;;;;;;;0.40;0.20;;;13.80;99.90;;;;;;4974025;28;20751;-75
2021/10/05 09:42:37;;;;;;;0.40;0.20;;;13.80;99.90;;;;;;4990888;28;20423;-76
2021/10/05 09:45:09;;;;;;;0.40;0.20;;;14.10;99.90;;;;;;4973941;28;20409;-75
2021/10/05 09:47:45;;;;;;;0.40;0.30;;;14.00;99.90;;;;;;4991158;28;20752;-75
2021/10/05 09:50:32;;;;;;;0.40;0.20;;;14.00;99.90;;;;;;4991057;28;20401;-76
2021/10/05 09:53:02;;;;;;;0.40;0.20;;;14.30;99.90;;;;;;4991538;28;20399;-76
2021/10/05 09:55:37;;;;;;;0.40;0.30;;;14.30;99.90;;;;;;4990534;28;20983;-76
2021/10/05 09:58:04;;;;;;;0.40;0.20;;;14.20;99.90;;;;;;4991443;28;20397;-76
2021/10/05 10:00:33;;;;;;;0.40;0.30;;;14.30;99.90;;;;;;4973218;28;20394;-75
2021/10/05 10:02:59;;;;;;;0.40;0.20;;;14.70;99.90;;;;;;4991107;28;20426;-74
2021/10/05 10:05:27;;;;;;;0.40;0.20;;;14.80;99.90;;;;;;4992093;28;20743;-76
2021/10/05 10:07:54;;;;;;;0.40;0.30;;;14.70;99.90;;;;;;4994479;28;20410;-75
2021/10/05 10:10:23;;;;;;;2.20;0.80;;;14.80;99.90;;;;;;4994745;28;20414;-75
2021/10/05 10:13:03;;;;;;;0.40;0.30;;;15.00;99.90;;;;;;4994392;28;20764;-75
2021/10/05 10:15:41;;;;;;;0.40;0.30;;;15.00;99.90;;;;;;4994001;28;20421;-76
2021/10/05 10:18:15;;;;;;;0.40;0.20;;;15.00;99.90;;;;;;4994680;28;20403;-75
2021/10/05 10:20:44;;;;;;;0.40;0.30;;;14.80;99.90;;;;;;4993980;28;20405;-75
2021/10/05 10:23:27;;;;;;;0.40;0.20;;;14.50;99.90;;;;;;4994377;28;20446;-75
2021/10/05 10:26:03;;;;;;;0.40;0.20;;;14.60;99.90;;;;;;4993953;28;20872;-75
2021/10/05 10:28:37;;;;;;;0.40;0.30;;;14.80;99.90;;;;;;4994031;28;20418;-74
2021/10/05 10:31:06;;;;;;;0.40;0.30;;;14.90;99.90;;;;;;4994284;28;20751;-75
2021/10/05 10:33:45;;;;;;;0.40;0.30;;;15.10;99.90;;;;;;4993738;28;20445;-74
2021/10/05 10:36:11;;;;;;;0.40;0.30;;;15.10;99.90;;;;;;4994273;28;20378;-74
2021/10/05 10:38:42;;;;;;;0.40;0.30;;;15.30;99.90;;;;;;4993621;28;20465;-74
2021/10/05 10:41:18;;;;;;;0.40;0.30;;;15.40;99.90;;;;;;4994075;28;20383;-74
2021/10/05 10:44:03;;;;;;;0.40;0.30;;;15.90;99.90;;;;;;4993370;28;20492;-74
2021/10/05 10:46:32;;;;;;;0.40;0.30;;;15.80;99.90;;;;;;4975877;28;20399;-71
2021/10/05 10:48:59;;;;;;;0.40;0.30;;;15.60;99.90;;;;;;4974365;28;20388;-74
2021/10/05 10:51:29;;;;;;;0.40;0.30;;;15.60;99.90;;;;;;4974832;28;20857;-75
2021/10/05 10:53:56;;;;;;;0.40;0.30;;;15.60;99.90;;;;;;4974480;28;20431;-75
2021/10/05 10:56:33;;;;;;;0.40;0.30;;;15.50;99.90;;;;;;4974600;28;20554;-75
2021/10/05 10:59:05;;;;;;;0.70;0.50;;;15.60;99.90;;;;;;4974575;28;20496;-71
2021/10/05 11:01:40;;;;;;;0.40;0.40;;;15.60;99.90;;;;;;4973568;28;20388;-74
2021/10/05 11:04:08;;;;;;;0.40;0.30;;;15.70;99.90;;;;;;4974097;28;20427;-74
2021/10/05 11:06:33;;;;;;;0.40;0.20;;;15.80;99.90;;;;;;4973660;28;20392;-74
2021/10/05 11:09:01;;;;;;;0.40;0.20;;;15.70;99.90;;;;;;4956906;28;20409;-74
2021/10/05 11:11:35;;;;;;;0.40;0.20;;;15.80;99.90;;;;;;4974176;28;20805;-75
2021/10/05 11:14:04;;;;;;;0.40;0.30;;;15.70;99.90;;;;;;4974231;28;20406;-74
2021/10/05 11:16:31;;;;;;;0.40;0.22;;;15.90;99.90;;;;;;4973339;28;20402;-74
2021/10/05 11:19:16;;;;;;;0.40;0.20;;;16.80;99.90;;;;;;4974129;28;20862;-74
2021/10/05 11:21:48;;;;;;;0.40;0.20;;;18.10;99.90;;;;;;4973470;28;20420;-74
2021/10/05 11:24:16;;;;;;;0.40;0.30;;;17.90;99.90;;;;;;4973693;28;20923;-74
2021/10/05 11:26:50;;;;;;;0.40;0.30;;;17.90;99.90;;;;;;4973236;28;20418;-74
2021/10/05 11:29:26;;;;;;;0.40;0.20;;;17.90;99.90;;;;;;4973971;28;20760;-73
2021/10/05 11:31:59;;;;;;;0.40;0.30;;;17.60;99.90;;;;;;4973204;28;20399;-74
2021/10/05 11:34:26;;;;;;;0.40;0.30;;;17.50;99.90;;;;;;4973365;28;20436;-74
2021/10/05 11:36:53;;;;;;;0.40;0.30;;;17.40;99.90;;;;;;4972981;28;20420;-74
2021/10/05 11:39:26;;;;;;;0.40;0.30;;;17.40;99.90;;;;;;4973697;28;20830;-74
2021/10/05 11:41:55;;;;;;;0.40;0.20;;;17.20;99.90;;;;;;4973094;28;20388;-74
2021/10/05 11:44:23;;;;;;;0.40;0.30;;;17.50;99.90;;;;;;4973907;28;20447;-74
2021/10/05 11:47:00;;;;;;;0.40;0.28;;;18.40;99.90;;;;;;4992226;28;20799;-74
2021/10/05 11:49:31;;;;;;;0.40;0.20;;;19.30;99.90;;;;;;4992901;28;20379;-74
2021/10/05 11:51:58;;;;;;;0.40;0.30;;;19.90;98.40;;;;;;4992876;28;20705;-74
2021/10/05 11:54:26;;;;;;;0.40;0.20;;;20.30;96.70;;;;;;4992751;28;20391;-74
2021/10/05 11:56:54;;;;;;;0.40;0.30;;;20.60;95.30;;;;;;4990773;28;20899;-74
2021/10/05 11:59:31;;;;;;;0.40;0.30;;;20.30;96.70;;;;;;4992889;28;20523;-73
2021/10/05 12:02:12;;;;;;;0.40;0.30;;;20.80;94.10;;;;;;4992585;28;20386;-73
2021/10/05 12:04:40;;;;;;;0.40;0.30;;;21.00;94.30;;;;;;4992056;28;20423;-73
2021/10/05 12:07:07;;;;;;;0.40;0.30;;;21.40;93.20;;;;;;4992476;28;20824;-70
2021/10/05 12:09:34;;;;;;;0.40;0.20;;;20.80;91.50;;;;;;4992056;28;20387;-74
2021/10/05 12:12:04;;;;;;;0.40;0.30;;;21.30;93.40;;;;;;4992329;28;20388;-72
2021/10/05 12:14:36;;;;;;;0.40;0.30;;;21.50;91.20;;;;;;4992375;28;20867;-73
2021/10/05 12:17:10;;;;;;;0.40;0.30;;;21.70;91.40;;;;;;4992426;28;20382;-74
2021/10/05 12:19:38;;;;;;;0.40;0.30;;;21.00;92.70;;;;;;4991940;28;20391;-73
2021/10/05 12:22:06;;;;;;;0.40;0.30;;;20.70;93.70;;;;;;4992609;28;20386;-73
2021/10/05 12:24:37;;;;;;;0.40;0.20;;;21.10;94.40;;;;;;4991681;28;20406;-74
2021/10/05 12:27:04;;;;;;;0.40;0.20;;;21.20;95.50;;;;;;4991982;28;20418;-72
2021/10/05 12:29:29;;;;;;;0.40;0.20;;;20.50;92.90;;;;;;4991031;28;20922;-74
2021/10/05 12:31:57;;;;;;;0.40;0.30;;;20.40;94.30;;;;;;4991564;28;20383;-73
2021/10/05 12:34:37;;;;;;;0.40;0.30;;;20.90;93.50;;;;;;4992279;28;20414;-73
2021/10/05 12:37:05;;;;;;;0.40;0.30;;;19.80;94.10;;;;;;4992136;28;20393;-74
2021/10/05 12:39:31;;;;;;;0.40;0.20;;;19.40;96.10;;;;;;4992282;28;20395;-74
2021/10/05 12:41:59;;;;;;;0.40;0.20;;;19.70;96.50;;;;;;4991529;28;20382;-73
2021/10/05 12:44:25;;;;;;;0.40;0.20;;;19.80;95.40;;;;;;4991005;28;20497;-72
2021/10/05 12:46:59;;;;;;;0.40;0.30;;;19.80;94.30;;;;;;4954714;28;20535;-73
2021/10/05 12:49:25;;;;;;;0.40;0.30;;;20.40;94.60;;;;;;4972784;28;20406;-75
2021/10/05 12:51:53;;;;;;;0.40;0.30;;;20.30;93.30;;;;;;4971968;28;20384;-74